sensor_id;sensor_type;location;lat;lon;timestamp;pressure;altitude;pressure_sealevel;temperature;humidity
72721;BME280;60835;50.974;10.322;2024-01-07T00:02:10;96541.06;;;1.30;100.00
72721;BME280;60835;50.974;10.322;2024-01-07T00:04:37;96520.63;;;1.25;100.00
72721;BME280;60835;50.974;10.322;2024-01-07T00:07:04;96505.28;;;1.32;100.00
72721;BME280;60835;50.974;10.322;2024-01-07T00:09:30;96512.69;;;1.27;100.00
72721;BME280;60835;50.974;10.322;2024-01-07T00:11:57;96513.41;;;1.19;100.00
72721;BME280;60835;50.974;10.322;2024-01-07T00:14:23;96494.63;;;1.15;100.00
72721;BME280;60835;50.974;10.322;2024-01-07T00:16:50;96480.13;;;1.13;100.00
72721;BME280;60835;50.974;10.322;2024-01-07T00:19:16;96468.56;;;0.98;100.00
72721;BME280;60835;50.974;10.322;2024-01-07T00:21:43;96463.00;;;1.10;100.00
72721;BME280;60835;50.974;10.322;2024-01-07T00:24:10;96453.97;;;1.05;100.00
72721;BME280;60835;50.974;10.322;2024-01-07T00:26:36;96454.22;;;1.11;100.00
72721;BME280;60835;50.974;10.322;2024-01-07T00:29:02;96438.91;;;1.08;100.00
72721;BME280;60835;50.974;10.322;2024-01-07T00:31:29;96428.22;;;1.02;100.00
72721;BME280;60835;50.974;10.322;2024-01-07T00:33:56;96426.84;;;1.07;100.00
72721;BME280;60835;50.974;10.322;2024-01-07T00:36:22;96402.63;;;0.97;100.00
72721;BME280;60835;50.974;10.322;2024-01-07T00:38:49;96400.13;;;1.05;100.00
72721;BME280;60835;50.974;10.322;2024-01-07T00:41:16;96407.41;;;1.02;100.00
72721;BME280;60835;50.974;10.322;2024-01-07T00:43:43;96376.41;;;1.08;100.00
72721;BME280;60835;50.974;10.322;2024-01-07T00:46:09;96391.56;;;0.95;100.00
72721;BME280;60835;50.974;10.322;2024-01-07T00:48:36;96397.34;;;0.89;100.00
72721;BME280;60835;50.974;10.322;2024-01-07T00:51:03;96404.22;;;0.81;100.00
72721;BME280;60835;50.974;10.322;2024-01-07T00:53:30;96378.53;;;0.95;100.00
72721;BME280;60835;50.974;10.322;2024-01-07T00:55:57;96399.44;;;0.76;100.00
72721;BME280;60835;50.974;10.322;2024-01-07T00:58:23;96376.22;;;0.92;100.00
72721;BME280;60835;50.974;10.322;2024-01-07T01:00:50;96385.81;;;0.92;100.00
72721;BME280;60835;50.974;10.322;2024-01-07T01:03:20;96381.47;;;0.83;100.00
72721;BME280;60835;50.974;10.322;2024-01-07T01:05:47;96394.34;;;0.84;100.00
72721;BME280;60835;50.974;10.322;2024-01-07T01:08:14;96386.91;;;0.89;100.00
72721;BME280;60835;50.974;10.322;2024-01-07T01:10:41;96397.34;;;0.80;100.00
72721;BME280;60835;50.974;10.322;2024-01-07T01:13:07;96400.13;;;0.78;100.00
72721;BME280;60835;50.974;10.322;2024-01-07T01:15:34;96397.47;;;0.60;100.00
72721;BME280;60835;50.974;10.322;2024-01-07T01:18:00;96417.16;;;0.63;100.00
72721;BME280;60835;50.974;10.322;2024-01-07T01:20:28;96418.56;;;0.48;100.00
72721;BME280;60835;50.974;10.322;2024-01-07T01:22:54;96425.13;;;0.52;100.00
72721;BME280;60835;50.974;10.322;2024-01-07T01:25:21;96430.06;;;0.55;100.00
72721;BME280;60835;50.974;10.322;2024-01-07T01:27:47;96428.41;;;0.54;100.00
72721;BME280;60835;50.974;10.322;2024-01-07T01:30:14;96433.63;;;0.54;100.00
72721;BME280;60835;50.974;10.322;2024-01-07T01:32:41;96432.78;;;0.63;100.00
72721;BME280;60835;50.974;10.322;2024-01-07T01:35:08;96433.34;;;0.57;100.00
72721;BME280;60835;50.974;10.322;2024-01-07T01:37:35;96430.56;;;0.68;100.00
72721;BME280;60835;50.974;10.322;2024-01-07T01:40:03;96411.38;;;0.69;100.00
72721;BME280;60835;50.974;10.322;2024-01-07T01:42:30;96439.16;;;0.78;100.00
72721;BME280;60835;50.974;10.322;2024-01-07T01:44:58;96415.72;;;0.78;100.00
72721;BME280;60835;50.974;10.322;2024-01-07T01:47:29;96444.53;;;0.67;100.00
72721;BME280;60835;50.974;10.322;2024-01-07T01:49:56;96461.13;;;0.66;100.00
72721;BME280;60835;50.974;10.322;2024-01-07T01:52:23;96462.78;;;0.48;100.00
72721;BME280;60835;50.974;10.322;2024-01-07T01:54:50;96487.84;;;0.49;100.00
72721;BME280;60835;50.974;10.322;2024-01-07T01:57:19;96487.72;;;0.41;100.00
72721;BME280;60835;50.974;10.322;2024-01-07T01:59:47;96510.44;;;0.39;100.00
72721;BME280;60835;50.974;10.322;2024-01-07T02:02:14;96504.31;;;0.21;100.00
72721;BME280;60835;50.974;10.322;2024-01-07T02:04:40;96516.50;;;0.11;100.00
72721;BME280;60835;50.974;10.322;2024-01-07T02:07:07;96515.81;;;0.18;100.00
72721;BME280;60835;50.974;10.322;2024-01-07T02:09:34;96517.59;;;0.18;100.00
72721;BME280;60835;50.974;10.322;2024-01-07T02:12:03;96538.22;;;0.19;100.00
72721;BME280;60835;50.974;10.322;2024-01-07T02:14:29;96536.03;;;0.24;100.00
72721;BME280;60835;50.974;10.322;2024-01-07T02:16:56;96534.41;;;0.33;100.00
72721;BME280;60835;50.974;10.322;2024-01-07T02:19:23;96528.25;;;0.24;100.00
72721;BME280;60835;50.974;10.322;2024-01-07T02:21:50;96539.63;;;0.23;100.00
72721;BME280;60835;50.974;10.322;2024-01-07T02:24:17;96539.59;;;0.33;100.00
72721;BME280;60835;50.974;10.322;2024-01-07T02:26:44;96552.31;;;0.17;100.00
72721;BME280;60835;50.974;10.322;2024-01-07T02:29:10;96557.66;;;0.06;100.00
72721;BME280;60835;50.974;10.322;2024-01-07T02:31:37;96565.88;;;0.30;100.00
72721;BME280;60835;50.974;10.322;2024-01-07T02:34:03;96565.06;;;0.20;100.00
72721;BME280;60835;50.974;10.322;2024-01-07T02:36:30;96567.13;;;0.26;100.00
72721;BME280;60835;50.974;10.322;2024-01-07T02:38:56;96567.25;;;0.34;100.00
72721;BME280;60835;50.974;10.322;2024-01-07T02:41:23;96559.31;;;0.26;100.00
72721;BME280;60835;50.974;10.322;2024-01-07T02:43:52;96601.47;;;0.20;100.00
72721;BME280;60835;50.974;10.322;2024-01-07T02:46:19;96582.19;;;0.32;100.00
72721;BME280;60835;50.974;10.322;2024-01-07T02:48:46;96614.63;;;0.28;100.00
72721;BME280;60835;50.974;10.322;2024-01-07T02:51:12;96622.00;;;0.23;100.00
72721;BME280;60835;50.974;10.322;2024-01-07T02:53:39;96626.41;;;0.32;100.00
72721;BME280;60835;50.974;10.322;2024-01-07T02:56:05;96647.75;;;0.26;100.00
72721;BME280;60835;50.974;10.322;2024-01-07T02:58:34;96652.56;;;0.59;100.00
72721;BME280;60835;50.974;10.322;2024-01-07T03:01:01;96681.44;;;0.37;100.00
72721;BME280;60835;50.974;10.322;2024-01-07T03:03:28;96693.63;;;0.36;100.00
72721;BME280;60835;50.974;10.322;2024-01-07T03:05:54;96717.56;;;0.40;100.00
72721;BME280;60835;50.974;10.322;2024-01-07T03:08:21;96720.88;;;0.42;100.00
72721;BME280;60835;50.974;10.322;2024-01-07T03:10:48;96763.28;;;0.33;100.00
72721;BME280;60835;50.974;10.322;2024-01-07T03:13:14;96792.56;;;0.35;100.00
72721;BME280;60835;50.974;10.322;2024-01-07T03:15:41;96815.97;;;0.35;100.00
72721;BME280;60835;50.974;10.322;2024-01-07T03:18:07;96811.50;;;0.37;100.00
72721;BME280;60835;50.974;10.322;2024-01-07T03:20:34;96858.31;;;0.37;100.00
72721;BME280;60835;50.974;10.322;2024-01-07T03:23:01;96885.69;;;0.41;100.00
72721;BME280;60835;50.974;10.322;2024-01-07T03:25:27;96895.22;;;0.31;100.00
72721;BME280;60835;50.974;10.322;2024-01-07T03:27:54;96928.34;;;0.29;100.00
72721;BME280;60835;50.974;10.322;2024-01-07T03:30:21;96926.47;;;0.40;100.00
72721;BME280;60835;50.974;10.322;2024-01-07T03:32:48;96964.75;;;0.29;100.00
72721;BME280;60835;50.974;10.322;2024-01-07T03:35:14;96965.44;;;0.31;100.00
72721;BME280;60835;50.974;10.322;2024-01-07T03:37:41;96992.50;;;0.39;100.00
72721;BME280;60835;50.974;10.322;2024-01-07T03:40:11;97018.16;;;0.33;100.00
72721;BME280;60835;50.974;10.322;2024-01-07T03:42:41;97039.41;;;0.38;100.00
72721;BME280;60835;50.974;10.322;2024-01-07T03:45:08;97051.28;;;0.31;100.00
72721;BME280;60835;50.974;10.322;2024-01-07T03:47:34;97052.31;;;0.39;100.00
72721;BME280;60835;50.974;10.322;2024-01-07T03:50:01;97105.00;;;0.21;100.00
72721;BME280;60835;50.974;10.322;2024-01-07T03:52:27;97117.28;;;0.19;100.00
72721;BME280;60835;50.974;10.322;2024-01-07T03:54:55;97117.66;;;0.14;100.00
72721;BME280;60835;50.974;10.322;2024-01-07T03:57:22;97146.25;;;0.14;100.00
72721;BME280;60835;50.974;10.322;2024-01-07T03:59:48;97191.75;;;0.09;100.00
72721;BME280;60835;50.974;10.322;2024-01-07T04:02:15;97228.91;;;0.11;100.00
72721;BME280;60835;50.974;10.322;2024-01-07T04:04:42;97246.13;;;0.23;100.00
72721;BME280;60835;50.974;10.322;2024-01-07T04:07:09;97266.59;;;-0.06;100.00
72721;BME280;60835;50.974;10.322;2024-01-07T04:09:36;97294.38;;;0.05;100.00
72721;BME280;60835;50.974;10.322;2024-01-07T04:12:03;97307.84;;;0.10;100.00
72721;BME280;60835;50.974;10.322;2024-01-07T04:14:29;97329.47;;;0.10;100.00
72721;BME280;60835;50.974;10.322;2024-01-07T04:16:56;97348.72;;;0.19;100.00
72721;BME280;60835;50.974;10.322;2024-01-07T04:19:22;97382.91;;;0.14;100.00
72721;BME280;60835;50.974;10.322;2024-01-07T04:21:49;97392.63;;;0.23;100.00
72721;BME280;60835;50.974;10.322;2024-01-07T04:24:16;97409.28;;;0.21;100.00
72721;BME280;60835;50.974;10.322;2024-01-07T04:26:42;97430.31;;;0.18;100.00
72721;BME280;60835;50.974;10.322;2024-01-07T04:29:09;97440.72;;;0.18;100.00
72721;BME280;60835;50.974;10.322;2024-01-07T04:31:36;97466.19;;;0.02;100.00
72721;BME280;60835;50.974;10.322;2024-01-07T04:34:03;97480.88;;;0.03;100.00
72721;BME280;60835;50.974;10.322;2024-01-07T04:36:29;97500.88;;;-0.11;100.00
72721;BME280;60835;50.974;10.322;2024-01-07T04:38:56;97495.00;;;-0.02;100.00
72721;BME280;60835;50.974;10.322;2024-01-07T04:41:23;97512.88;;;-0.21;100.00
72721;BME280;60835;50.974;10.322;2024-01-07T04:43:50;97543.50;;;-0.13;100.00
72721;BME280;60835;50.974;10.322;2024-01-07T04:46:16;97539.88;;;-0.11;100.00
72721;BME280;60835;50.974;10.322;2024-01-07T04:48:44;97556.22;;;-0.21;100.00
72721;BME280;60835;50.974;10.322;2024-01-07T04:51:10;97554.59;;;0.02;100.00
72721;BME280;60835;50.974;10.322;2024-01-07T04:53:37;97567.31;;;-0.07;100.00
72721;BME280;60835;50.974;10.322;2024-01-07T04:56:03;97563.16;;;-0.09;100.00
72721;BME280;60835;50.974;10.322;2024-01-07T04:58:30;97563.22;;;-0.22;100.00
72721;BME280;60835;50.974;10.322;2024-01-07T05:00:56;97593.97;;;-0.16;100.00
72721;BME280;60835;50.974;10.322;2024-01-07T05:03:23;97606.91;;;-0.27;100.00
72721;BME280;60835;50.974;10.322;2024-01-07T05:05:50;97625.41;;;-0.19;100.00
72721;BME280;60835;50.974;10.322;2024-01-07T05:08:16;97621.03;;;-0.31;100.00
72721;BME280;60835;50.974;10.322;2024-01-07T05:10:43;97661.16;;;-0.22;100.00
72721;BME280;60835;50.974;10.322;2024-01-07T05:13:09;97657.44;;;-0.43;100.00
72721;BME280;60835;50.974;10.322;2024-01-07T05:15:37;97676.13;;;-0.26;100.00
72721;BME280;60835;50.974;10.322;2024-01-07T05:18:07;97678.22;;;-0.31;100.00
72721;BME280;60835;50.974;10.322;2024-01-07T05:20:33;97669.03;;;-0.24;100.00
72721;BME280;60835;50.974;10.322;2024-01-07T05:23:00;97694.66;;;-0.43;100.00
72721;BME280;60835;50.974;10.322;2024-01-07T05:25:26;97691.09;;;-0.42;100.00
72721;BME280;60835;50.974;10.322;2024-01-07T05:27:53;97710.63;;;-0.36;100.00
72721;BME280;60835;50.974;10.322;2024-01-07T05:30:19;97700.88;;;-0.58;100.00
72721;BME280;60835;50.974;10.322;2024-01-07T05:32:46;97734.22;;;-0.52;100.00
72721;BME280;60835;50.974;10.322;2024-01-07T05:35:13;97741.50;;;-0.44;100.00
72721;BME280;60835;50.974;10.322;2024-01-07T05:37:39;97755.41;;;-0.58;100.00
72721;BME280;60835;50.974;10.322;2024-01-07T05:40:06;97750.53;;;-0.50;100.00
72721;BME280;60835;50.974;10.322;2024-01-07T05:42:33;97755.94;;;-0.53;100.00
72721;BME280;60835;50.974;10.322;2024-01-07T05:45:00;97757.16;;;-0.71;100.00
72721;BME280;60835;50.974;10.322;2024-01-07T05:47:26;97768.72;;;-0.63;100.00
72721;BME280;60835;50.974;10.322;2024-01-07T05:49:53;97776.81;;;-0.67;100.00
72721;BME280;60835;50.974;10.322;2024-01-07T05:52:20;97765.41;;;-0.65;100.00
72721;BME280;60835;50.974;10.322;2024-01-07T05:54:46;97781.06;;;-0.66;100.00
72721;BME280;60835;50.974;10.322;2024-01-07T05:57:13;97764.56;;;-0.65;100.00
72721;BME280;60835;50.974;10.322;2024-01-07T05:59:39;97762.81;;;-0.52;100.00
72721;BME280;60835;50.974;10.322;2024-01-07T06:02:06;97763.41;;;-0.74;100.00
72721;BME280;60835;50.974;10.322;2024-01-07T06:04:32;97767.56;;;-0.71;100.00
72721;BME280;60835;50.974;10.322;2024-01-07T06:06:59;97777.56;;;-0.65;100.00
72721;BME280;60835;50.974;10.322;2024-01-07T06:09:26;97788.44;;;-0.85;100.00
72721;BME280;60835;50.974;10.322;2024-01-07T06:11:53;97804.72;;;-0.83;100.00
72721;BME280;60835;50.974;10.322;2024-01-07T06:14:19;97808.06;;;-0.81;100.00
72721;BME280;60835;50.974;10.322;2024-01-07T06:16:45;97807.66;;;-0.75;100.00
72721;BME280;60835;50.974;10.322;2024-01-07T06:19:12;97825.34;;;-0.68;100.00
72721;BME280;60835;50.974;10.322;2024-01-07T06:21:39;97855.31;;;-1.03;100.00
72721;BME280;60835;50.974;10.322;2024-01-07T06:24:07;97863.31;;;-1.06;100.00
72721;BME280;60835;50.974;10.322;2024-01-07T06:26:35;97882.13;;;-1.02;100.00
72721;BME280;60835;50.974;10.322;2024-01-07T06:29:01;97892.63;;;-1.18;100.00
72721;BME280;60835;50.974;10.322;2024-01-07T06:31:28;97901.63;;;-1.09;100.00
72721;BME280;60835;50.974;10.322;2024-01-07T06:33:54;97912.63;;;-1.06;100.00
72721;BME280;60835;50.974;10.322;2024-01-07T06:36:25;97901.81;;;-1.12;100.00
72721;BME280;60835;50.974;10.322;2024-01-07T06:38:51;97918.69;;;-1.19;100.00
72721;BME280;60835;50.974;10.322;2024-01-07T06:41:18;97936.28;;;-1.10;100.00
72721;BME280;60835;50.974;10.322;2024-01-07T06:43:44;97926.91;;;-1.13;100.00
72721;BME280;60835;50.974;10.322;2024-01-07T06:46:12;97928.19;;;-1.06;100.00
72721;BME280;60835;50.974;10.322;2024-01-07T06:48:39;97941.66;;;-1.13;100.00
72721;BME280;60835;50.974;10.322;2024-01-07T06:51:11;97943.16;;;-1.09;100.00
72721;BME280;60835;50.974;10.322;2024-01-07T06:53:37;97942.06;;;-1.19;100.00
72721;BME280;60835;50.974;10.322;2024-01-07T06:56:04;97970.13;;;-1.12;100.00
72721;BME280;60835;50.974;10.322;2024-01-07T06:58:31;97970.03;;;-1.25;100.00
72721;BME280;60835;50.974;10.322;2024-01-07T07:00:58;97976.34;;;-1.14;100.00
72721;BME280;60835;50.974;10.322;2024-01-07T07:03:25;98007.31;;;-1.11;100.00
72721;BME280;60835;50.974;10.322;2024-01-07T07:05:52;98021.38;;;-1.15;100.00
72721;BME280;60835;50.974;10.322;2024-01-07T07:08:18;98038.97;;;-1.35;100.00
72721;BME280;60835;50.974;10.322;2024-01-07T07:10:45;98042.97;;;-1.43;100.00
72721;BME280;60835;50.974;10.322;2024-01-07T07:13:12;98048.81;;;-1.26;100.00
72721;BME280;60835;50.974;10.322;2024-01-07T07:15:38;98071.88;;;-1.35;100.00
72721;BME280;60835;50.974;10.322;2024-01-07T07:18:05;98074.19;;;-1.31;100.00
72721;BME280;60835;50.974;10.322;2024-01-07T07:20:31;98070.91;;;-1.48;100.00
72721;BME280;60835;50.974;10.322;2024-01-07T07:22:58;98094.75;;;-1.42;100.00
72721;BME280;60835;50.974;10.322;2024-01-07T07:25:25;98090.28;;;-1.40;100.00
72721;BME280;60835;50.974;10.322;2024-01-07T07:27:53;98103.25;;;-1.54;100.00
72721;BME280;60835;50.974;10.322;2024-01-07T07:30:20;98101.81;;;-1.30;100.00
72721;BME280;60835;50.974;10.322;2024-01-07T07:32:47;98108.91;;;-1.47;100.00
72721;BME280;60835;50.974;10.322;2024-01-07T07:35:13;98115.63;;;-1.59;100.00
72721;BME280;60835;50.974;10.322;2024-01-07T07:37:40;98113.63;;;-1.54;100.00
72721;BME280;60835;50.974;10.322;2024-01-07T07:40:07;98120.34;;;-1.22;100.00
72721;BME280;60835;50.974;10.322;2024-01-07T07:42:33;98124.75;;;-1.38;100.00
72721;BME280;60835;50.974;10.322;2024-01-07T07:45:00;98128.13;;;-1.36;100.00
72721;BME280;60835;50.974;10.322;2024-01-07T07:47:28;98121.81;;;-1.46;100.00
72721;BME280;60835;50.974;10.322;2024-01-07T07:49:54;98120.06;;;-1.31;100.00
72721;BME280;60835;50.974;10.322;2024-01-07T07:52:21;98123.06;;;-1.23;100.00
72721;BME280;60835;50.974;10.322;2024-01-07T07:54:52;98129.56;;;-1.16;100.00
72721;BME280;60835;50.974;10.322;2024-01-07T07:57:19;98131.53;;;-1.05;100.00
72721;BME280;60835;50.974;10.322;2024-01-07T07:59:51;98130.44;;;-1.31;100.00
72721;BME280;60835;50.974;10.322;2024-01-07T08:02:17;98142.41;;;-1.29;100.00
72721;BME280;60835;50.974;10.322;2024-01-07T08:04:44;98143.31;;;-1.30;100.00
72721;BME280;60835;50.974;10.322;2024-01-07T08:07:10;98141.91;;;-1.19;100.00
72721;BME280;60835;50.974;10.322;2024-01-07T08:09:37;98129.09;;;-1.23;100.00
72721;BME280;60835;50.974;10.322;2024-01-07T08:12:05;98138.19;;;-1.15;100.00
72721;BME280;60835;50.974;10.322;2024-01-07T08:14:32;98144.50;;;-1.19;100.00
72721;BME280;60835;50.974;10.322;2024-01-07T08:16:59;98132.81;;;-1.12;100.00
72721;BME280;60835;50.974;10.322;2024-01-07T08:19:25;98151.03;;;-1.28;100.00
72721;BME280;60835;50.974;10.322;2024-01-07T08:21:52;98149.28;;;-1.28;100.00
72721;BME280;60835;50.974;10.322;2024-01-07T08:24:19;98140.59;;;-1.12;100.00
72721;BME280;60835;50.974;10.322;2024-01-07T08:26:45;98153.19;;;-1.20;100.00
72721;BME280;60835;50.974;10.322;2024-01-07T08:29:12;98161.19;;;-1.09;100.00
72721;BME280;60835;50.974;10.322;2024-01-07T08:31:39;98168.53;;;-1.32;100.00
72721;BME280;60835;50.974;10.322;2024-01-07T08:34:06;98171.69;;;-1.27;100.00
72721;BME280;60835;50.974;10.322;2024-01-07T08:36:32;98182.91;;;-1.26;100.00
72721;BME280;60835;50.974;10.322;2024-01-07T08:38:59;98181.16;;;-1.26;100.00
72721;BME280;60835;50.974;10.322;2024-01-07T08:41:26;98186.19;;;-1.23;100.00
72721;BME280;60835;50.974;10.322;2024-01-07T08:43:53;98186.22;;;-1.08;100.00
72721;BME280;60835;50.974;10.322;2024-01-07T08:46:22;98183.09;;;-0.99;100.00
72721;BME280;60835;50.974;10.322;2024-01-07T08:48:49;98187.31;;;-1.12;100.00
72721;BME280;60835;50.974;10.322;2024-01-07T08:51:15;98195.97;;;-1.12;100.00
72721;BME280;60835;50.974;10.322;2024-01-07T08:53:42;98199.06;;;-1.21;100.00
72721;BME280;60835;50.974;10.322;2024-01-07T08:56:08;98204.38;;;-1.08;100.00
72721;BME280;60835;50.974;10.322;2024-01-07T08:58:35;98198.72;;;-1.15;100.00
72721;BME280;60835;50.974;10.322;2024-01-07T09:01:03;98216.44;;;-1.07;100.00
72721;BME280;60835;50.974;10.322;2024-01-07T09:03:30;98215.72;;;-1.09;100.00
72721;BME280;60835;50.974;10.322;2024-01-07T09:05:57;98216.97;;;-1.16;100.00
72721;BME280;60835;50.974;10.322;2024-01-07T09:08:23;98228.75;;;-1.41;100.00
72721;BME280;60835;50.974;10.322;2024-01-07T09:10:50;98237.94;;;-1.51;100.00
72721;BME280;60835;50.974;10.322;2024-01-07T09:13:16;98245.97;;;-1.40;100.00
72721;BME280;60835;50.974;10.322;2024-01-07T09:15:43;98249.84;;;-1.47;100.00
72721;BME280;60835;50.974;10.322;2024-01-07T09:18:10;98252.75;;;-1.53;100.00
72721;BME280;60835;50.974;10.322;2024-01-07T09:20:36;98262.41;;;-1.55;100.00
72721;BME280;60835;50.974;10.322;2024-01-07T09:23:03;98274.09;;;-1.48;100.00
72721;BME280;60835;50.974;10.322;2024-01-07T09:25:30;98275.09;;;-1.35;100.00
72721;BME280;60835;50.974;10.322;2024-01-07T09:27:56;98282.03;;;-1.51;100.00
72721;BME280;60835;50.974;10.322;2024-01-07T09:30:23;98278.28;;;-1.45;100.00
72721;BME280;60835;50.974;10.322;2024-01-07T09:32:49;98278.72;;;-1.53;100.00
72721;BME280;60835;50.974;10.322;2024-01-07T09:35:16;98298.22;;;-1.46;100.00
72721;BME280;60835;50.974;10.322;2024-01-07T09:37:43;98310.53;;;-1.34;100.00
72721;BME280;60835;50.974;10.322;2024-01-07T09:40:10;98331.19;;;-1.48;100.00
72721;BME280;60835;50.974;10.322;2024-01-07T09:42:37;98357.13;;;-1.32;100.00
72721;BME280;60835;50.974;10.322;2024-01-07T09:45:03;98377.47;;;-1.40;100.00
72721;BME280;60835;50.974;10.322;2024-01-07T09:47:31;98369.72;;;-1.25;100.00
72721;BME280;60835;50.974;10.322;2024-01-07T09:49:57;98376.41;;;-1.20;100.00
72721;BME280;60835;50.974;10.322;2024-01-07T09:52:25;98394.00;;;-1.26;100.00
72721;BME280;60835;50.974;10.322;2024-01-07T09:54:57;98384.94;;;-1.18;100.00
72721;BME280;60835;50.974;10.322;2024-01-07T09:57:25;98417.19;;;-1.07;100.00
72721;BME280;60835;50.974;10.322;2024-01-07T09:59:52;98422.41;;;-1.40;100.00
72721;BME280;60835;50.974;10.322;2024-01-07T10:02:19;98435.25;;;-1.37;100.00
72721;BME280;60835;50.974;10.322;2024-01-07T10:04:47;98445.78;;;-1.40;100.00
72721;BME280;60835;50.974;10.322;2024-01-07T10:07:15;98422.75;;;-1.46;100.00
72721;BME280;60835;50.974;10.322;2024-01-07T10:09:41;98443.22;;;-1.08;100.00
72721;BME280;60835;50.974;10.322;2024-01-07T10:12:11;98440.47;;;-1.05;100.00
72721;BME280;60835;50.974;10.322;2024-01-07T10:14:40;98454.63;;;-0.95;100.00
72721;BME280;60835;50.974;10.322;2024-01-07T10:17:16;98461.19;;;-0.88;100.00
72721;BME280;60835;50.974;10.322;2024-01-07T10:19:46;98464.03;;;-0.93;100.00
72721;BME280;60835;50.974;10.322;2024-01-07T10:22:13;98474.81;;;-1.00;100.00
72721;BME280;60835;50.974;10.322;2024-01-07T10:24:41;98478.22;;;-1.15;100.00
72721;BME280;60835;50.974;10.322;2024-01-07T10:27:08;98492.63;;;-1.26;100.00
72721;BME280;60835;50.974;10.322;2024-01-07T10:29:35;98504.50;;;-1.22;100.00
72721;BME280;60835;50.974;10.322;2024-01-07T10:32:02;98504.53;;;-1.06;100.00
72721;BME280;60835;50.974;10.322;2024-01-07T10:34:32;98515.44;;;-0.99;100.00
72721;BME280;60835;50.974;10.322;2024-01-07T10:37:01;98524.34;;;-1.03;100.00
72721;BME280;60835;50.974;10.322;2024-01-07T10:39:29;98528.31;;;-1.13;100.00
72721;BME280;60835;50.974;10.322;2024-01-07T10:41:56;98537.19;;;-1.17;100.00
72721;BME280;60835;50.974;10.322;2024-01-07T10:44:30;98547.50;;;-1.00;100.00
72721;BME280;60835;50.974;10.322;2024-01-07T10:46:57;98547.44;;;-0.99;100.00
72721;BME280;60835;50.974;10.322;2024-01-07T10:49:26;98548.78;;;-0.92;100.00
72721;BME280;60835;50.974;10.322;2024-01-07T10:52:03;98554.50;;;-1.18;100.00
72721;BME280;60835;50.974;10.322;2024-01-07T10:54:35;98562.38;;;-1.19;100.00
72721;BME280;60835;50.974;10.322;2024-01-07T10:57:11;98560.41;;;-1.32;100.00
72721;BME280;60835;50.974;10.322;2024-01-07T10:59:40;98569.47;;;-1.23;100.00
72721;BME280;60835;50.974;10.322;2024-01-07T11:02:07;98568.78;;;-1.27;100.00
72721;BME280;60835;50.974;10.322;2024-01-07T11:05:02;98576.13;;;-1.17;100.00
72721;BME280;60835;50.974;10.322;2024-01-07T11:07:35;98582.91;;;-1.15;100.00
72721;BME280;60835;50.974;10.322;2024-01-07T11:10:18;98583.59;;;-1.11;100.00
72721;BME280;60835;50.974;10.322;2024-01-07T11:12:55;98589.41;;;-1.06;100.00
72721;BME280;60835;50.974;10.322;2024-01-07T11:18:22;98597.34;;;-1.09;100.00
72721;BME280;60835;50.974;10.322;2024-01-07T11:20:49;98595.03;;;-1.15;100.00
72721;BME280;60835;50.974;10.322;2024-01-07T11:23:35;98620.72;;;-1.09;100.00
72721;BME280;60835;50.974;10.322;2024-01-07T11:26:06;98633.16;;;-1.33;100.00
72721;BME280;60835;50.974;10.322;2024-01-07T11:28:52;98641.94;;;-1.36;100.00
72721;BME280;60835;50.974;10.322;2024-01-07T11:31:21;98641.47;;;-1.44;100.00
72721;BME280;60835;50.974;10.322;2024-01-07T11:33:49;98635.06;;;-1.37;100.00
72721;BME280;60835;50.974;10.322;2024-01-07T11:36:17;98651.56;;;-1.20;100.00
72721;BME280;60835;50.974;10.322;2024-01-07T11:38:45;98646.56;;;-1.08;100.00
72721;BME280;60835;50.974;10.322;2024-01-07T11:41:20;98654.78;;;-1.33;100.00
72721;BME280;60835;50.974;10.322;2024-01-07T11:43:54;98653.78;;;-1.66;100.00
72721;BME280;60835;50.974;10.322;2024-01-07T11:46:22;98663.00;;;-1.42;100.00
72721;BME280;60835;50.974;10.322;2024-01-07T11:48:57;98641.00;;;-1.35;100.00
72721;BME280;60835;50.974;10.322;2024-01-07T11:51:27;98659.88;;;-1.31;100.00
72721;BME280;60835;50.974;10.322;2024-01-07T11:53:54;98663.13;;;-1.62;100.00
72721;BME280;60835;50.974;10.322;2024-01-07T11:56:20;98670.53;;;-1.37;100.00
72721;BME280;60835;50.974;10.322;2024-01-07T11:58:47;98667.34;;;-1.42;100.00
72721;BME280;60835;50.974;10.322;2024-01-07T12:01:18;98668.19;;;-1.42;100.00
72721;BME280;60835;50.974;10.322;2024-01-07T12:03:45;98668.56;;;-1.49;100.00
72721;BME280;60835;50.974;10.322;2024-01-07T12:06:12;98672.19;;;-1.53;100.00
72721;BME280;60835;50.974;10.322;2024-01-07T12:08:41;98680.25;;;-1.41;100.00
72721;BME280;60835;50.974;10.322;2024-01-07T12:11:13;98679.47;;;-1.43;100.00
72721;BME280;60835;50.974;10.322;2024-01-07T12:13:42;98694.75;;;-1.37;100.00
72721;BME280;60835;50.974;10.322;2024-01-07T12:16:09;98710.88;;;-1.66;100.00
72721;BME280;60835;50.974;10.322;2024-01-07T12:18:38;98696.69;;;-1.59;100.00
72721;BME280;60835;50.974;10.322;2024-01-07T12:21:05;98711.00;;;-1.69;100.00
72721;BME280;60835;50.974;10.322;2024-01-07T12:23:35;98721.59;;;-1.55;100.00
72721;BME280;60835;50.974;10.322;2024-01-07T12:26:12;98714.94;;;-1.79;100.00
72721;BME280;60835;50.974;10.322;2024-01-07T12:28:39;98714.38;;;-1.67;100.00
72721;BME280;60835;50.974;10.322;2024-01-07T12:31:06;98730.50;;;-1.79;100.00
72721;BME280;60835;50.974;10.322;2024-01-07T12:33:33;98729.03;;;-1.85;100.00
72721;BME280;60835;50.974;10.322;2024-01-07T12:36:01;98732.97;;;-1.76;100.00
72721;BME280;60835;50.974;10.322;2024-01-07T12:38:27;98732.75;;;-1.90;100.00
72721;BME280;60835;50.974;10.322;2024-01-07T12:40:54;98725.53;;;-1.83;100.00
72721;BME280;60835;50.974;10.322;2024-01-07T12:43:21;98744.22;;;-1.58;100.00
72721;BME280;60835;50.974;10.322;2024-01-07T12:45:48;98745.50;;;-1.67;100.00
72721;BME280;60835;50.974;10.322;2024-01-07T12:48:15;98753.50;;;-1.90;100.00